ULLI/LED METAR and TAF weather

Enter ICAO airport designator
Station Type Date Time Source
ULLI METAR 2020/09/27 03:00 UTC NOAA

ULLI 270300Z 11004MPS 5000 BR NSC 09/08 Q1019 R10R/090060 NOSIG


Station Type Date Time Source
ULLI Decoded METAR 2020/09/27 03:00 UTC NOAA

St. Peterburg, Russia (ULLI) 59-58N 030-18E 6M
Sep 26, 2020 - 11:00 PM EDT / 2020.09.27 0300 UTC
Wind: from the ESE (110 degrees) at 9 MPH (8 KT):0
Visibility: 3 mile(s):0
Weather: mist
Temperature: 48 F (9 C)
Dew Point: 46 F (8 C)
Relative Humidity: 93%
Pressure (altimeter): 30.09 in. Hg (1019 hPa)
ob: ULLI 270300Z 11004MPS 5000 BR NSC 09/08 Q1019 R10R/090060 NOSIG
cycle: 3

Station Type Date Time Source
ULLI TAF 2020/09/27 03:21 UTC NOAA

TAF TAF ULLI 270155Z 2703/2803 10003MPS 5000 BR FEW030
TEMPO 2703/2704 3100 MIFG BR FEW003
FM270600 12003MPS CAVOK
TEMPO 2709/2718 13005G10MPS
TEMPO 2800/2803 3100 MIFG BR FEW003

Example: see airport list